createdAt,value
2022-11-29T00:01:49.351Z,98545.88
2022-11-29T00:04:16.663Z,98540.63
2022-11-29T00:06:43.842Z,98541.16
2022-11-29T00:09:13.451Z,98548.72
2022-11-29T00:12:01.471Z,98545.00
2022-11-29T00:14:29.953Z,98549.13
2022-11-29T00:17:02.993Z,98544.19
2022-11-29T00:19:36.937Z,98539.56
2022-11-29T00:22:05.008Z,98535.09
2022-11-29T00:24:37.784Z,98531.22
2022-11-29T00:27:05.118Z,98535.59
2022-11-29T00:29:33.532Z,98538.13
2022-11-29T00:32:02.981Z,98541.06
2022-11-29T00:34:30.372Z,98537.38
2022-11-29T00:36:57.748Z,98536.28
2022-11-29T00:39:25.170Z,98538.47
2022-11-29T00:41:57.470Z,98533.09
2022-11-29T00:44:27.175Z,98538.13
2022-11-29T00:46:54.532Z,98535.88
2022-11-29T00:49:21.688Z,98536.44
2022-11-29T00:51:49.053Z,98533.75
2022-11-29T00:54:16.972Z,98540.06
2022-11-29T00:56:44.427Z,98540.72
2022-11-29T00:59:11.724Z,98539.06
2022-11-29T01:01:41.069Z,98546.34
2022-11-29T01:04:08.659Z,98544.00
2022-11-29T01:06:35.971Z,98538.47
2022-11-29T01:09:04.946Z,98543.41
2022-11-29T01:11:32.589Z,98545.78
2022-11-29T01:14:03.732Z,98536.84
2022-11-29T01:16:32.488Z,98539.97
2022-11-29T01:19:00.601Z,98545.63
2022-11-29T01:21:29.643Z,98541.41
2022-11-29T01:23:57.540Z,98549.47
2022-11-29T01:26:28.316Z,98550.16
2022-11-29T01:28:58.632Z,98542.50
2022-11-29T01:31:32.327Z,98552.41
2022-11-29T01:34:03.116Z,98551.16
2022-11-29T01:36:36.807Z,98560.47
2022-11-29T01:39:06.401Z,98557.19
2022-11-29T01:41:37.333Z,98551.91
2022-11-29T01:44:28.512Z,98550.56
2022-11-29T01:46:57.562Z,98552.06
2022-11-29T01:49:47.263Z,98550.25
2022-11-29T01:52:31.187Z,98547.63
2022-11-29T01:55:03.564Z,98548.38
2022-11-29T01:57:34.118Z,98548.31
2022-11-29T02:00:41.011Z,98547.88
2022-11-29T02:03:17.296Z,98543.00
2022-11-29T02:05:53.924Z,98544.19
2022-11-29T02:08:31.878Z,98541.66
2022-11-29T02:11:17.403Z,98539.97
2022-11-29T02:14:23.212Z,98537.81
2022-11-29T02:17:21.285Z,98545.59
2022-11-29T02:20:27.776Z,98546.50
2022-11-29T02:23:20.622Z,98555.28
2022-11-29T02:26:22.015Z,98545.00
2022-11-29T02:29:32.137Z,98551.25
2022-11-29T02:32:31.052Z,98552.06
2022-11-29T02:35:19.392Z,98548.03
2022-11-29T02:38:30.091Z,98551.66
2022-11-29T02:41:48.121Z,98551.72
2022-11-29T02:44:47.757Z,98551.50
2022-11-29T02:47:57.032Z,98547.78
2022-11-29T02:50:42.285Z,98555.44
2022-11-29T02:53:29.641Z,98556.19
2022-11-29T02:56:50.646Z,98552.41
2022-11-29T02:59:34.118Z,98554.69
2022-11-29T03:02:32.655Z,98552.06
2022-11-29T03:05:42.010Z,98557.78
2022-11-29T03:08:54.799Z,98548.91
2022-11-29T03:12:07.966Z,98556.28
2022-11-29T03:15:23.784Z,98559.47
2022-11-29T03:18:40.499Z,98561.81
2022-11-29T03:21:33.252Z,98570.41
2022-11-29T03:24:20.896Z,98567.81
2022-11-29T03:27:02.371Z,98560.16
2022-11-29T03:30:03.418Z,98570.31
2022-11-29T03:32:45.594Z,98565.47
2022-11-29T03:35:31.089Z,98567.22
2022-11-29T03:38:40.919Z,98572.94
2022-11-29T03:41:32.754Z,98567.38
2022-11-29T03:44:50.375Z,98566.47
2022-11-29T03:47:31.427Z,98578.31
2022-11-29T03:50:14.565Z,98575.63
2022-11-29T03:53:23.043Z,98582.03
2022-11-29T03:55:58.473Z,98575.53
2022-11-29T03:59:00.082Z,98582.50
2022-11-29T04:01:57.176Z,98577.47
2022-11-29T04:05:17.072Z,98581.94
2022-11-29T04:08:22.373Z,98582.38
2022-11-29T04:11:54.875Z,98580.41
2022-11-29T04:15:15.790Z,98584.69
2022-11-29T04:18:18.953Z,98579.16
2022-11-29T04:21:19.739Z,98584.47
2022-11-29T04:24:07.875Z,98590.44
2022-11-29T04:27:11.751Z,98595.22
2022-11-29T04:30:04.695Z,98591.09
2022-11-29T04:33:32.426Z,98592.94
2022-11-29T04:37:07.214Z,98605.47
2022-11-29T04:39:54.205Z,98598.59
2022-11-29T04:43:01.291Z,98606.41
2022-11-29T04:46:01.297Z,98605.91
2022-11-29T04:49:02.190Z,98604.31
2022-11-29T04:52:32.049Z,98607.06
2022-11-29T04:55:26.373Z,98604.66
2022-11-29T04:58:37.787Z,98610.75
2022-11-29T05:02:08.581Z,98608.56
2022-11-29T05:04:56.641Z,98611.69
2022-11-29T05:07:39.917Z,98607.00
2022-11-29T05:11:06.888Z,98618.91
2022-11-29T05:14:16.650Z,98621.94
2022-11-29T05:16:54.063Z,98614.28
2022-11-29T05:19:58.301Z,98619.38
2022-11-29T05:22:40.586Z,98625.44
2022-11-29T05:25:54.775Z,98623.81
2022-11-29T05:28:51.119Z,98622.56
2022-11-29T05:32:18.182Z,98628.19
2022-11-29T05:35:22.256Z,98631.53
2022-11-29T05:37:57.588Z,98631.63
2022-11-29T05:41:08.739Z,98629.78
2022-11-29T05:44:08.744Z,98632.63
2022-11-29T05:47:10.159Z,98634.41
2022-11-29T05:50:17.547Z,98633.75
2022-11-29T05:52:56.432Z,98640.75
2022-11-29T05:55:41.521Z,98645.78
2022-11-29T05:58:50.197Z,98644.25
2022-11-29T06:01:24.146Z,98638.94
2022-11-29T06:04:20.269Z,98642.97
2022-11-29T06:07:16.388Z,98647.19
2022-11-29T06:09:48.716Z,98638.88
2022-11-29T06:12:26.843Z,98644.09
2022-11-29T06:16:16.793Z,98651.97
2022-11-29T06:20:10.243Z,98655.69
2022-11-29T06:23:28.893Z,98657.78
2022-11-29T06:26:34.408Z,98662.59
2022-11-29T06:29:25.751Z,98670.00
2022-11-29T06:32:17.266Z,98671.66
2022-11-29T06:35:07.721Z,98671.00
2022-11-29T06:37:50.820Z,98679.78
2022-11-29T06:40:18.491Z,98679.09
2022-11-29T06:42:45.904Z,98682.78
2022-11-29T06:45:16.009Z,98681.59
2022-11-29T06:47:58.188Z,98686.53
2022-11-29T06:50:56.059Z,98679.75
2022-11-29T06:53:51.883Z,98686.31
2022-11-29T06:56:44.285Z,98685.31
2022-11-29T06:59:38.369Z,98687.50
2022-11-29T07:02:28.104Z,98690.34
2022-11-29T07:05:32.197Z,98692.41
2022-11-29T07:08:27.178Z,98698.16
2022-11-29T07:10:56.046Z,98706.94
2022-11-29T07:13:23.990Z,98703.41
2022-11-29T07:16:04.296Z,98704.41
2022-11-29T07:19:20.834Z,98701.31
2022-11-29T07:22:33.540Z,98705.16
2022-11-29T07:25:51.308Z,98714.81
2022-11-29T07:29:14.195Z,98714.00
2022-11-29T07:32:17.993Z,98732.09
2022-11-29T07:35:14.410Z,98715.19
2022-11-29T07:38:42.143Z,98719.56
2022-11-29T07:41:21.179Z,98716.03
2022-11-29T07:44:16.945Z,98714.84
2022-11-29T07:46:44.646Z,98716.97
2022-11-29T07:49:12.213Z,98727.38
2022-11-29T07:51:39.734Z,98721.75
2022-11-29T07:54:07.394Z,98726.50
2022-11-29T07:56:34.644Z,98730.28
2022-11-29T07:59:01.953Z,98734.16
2022-11-29T08:01:29.320Z,98733.56
2022-11-29T08:03:56.543Z,98724.72
2022-11-29T08:06:26.714Z,98728.59
2022-11-29T08:08:57.508Z,98735.97
2022-11-29T08:11:25.358Z,98728.59
2022-11-29T08:14:05.162Z,98737.09
2022-11-29T08:16:33.349Z,98735.13
2022-11-29T08:19:00.759Z,98732.38
2022-11-29T08:21:30.251Z,98735.84
2022-11-29T08:23:57.592Z,98742.84
2022-11-29T08:26:29.809Z,98746.19
2022-11-29T08:28:58.998Z,98749.75
2022-11-29T08:31:26.413Z,98745.44
2022-11-29T08:33:54.031Z,98751.72
2022-11-29T08:36:21.706Z,98751.16
2022-11-29T08:38:49.114Z,98748.50
2022-11-29T08:41:18.059Z,98747.59
2022-11-29T08:43:45.859Z,98757.28
2022-11-29T08:46:18.301Z,98753.84
2022-11-29T08:48:47.733Z,98758.38
2022-11-29T08:51:15.848Z,98764.78
2022-11-29T08:53:43.456Z,98766.84
2022-11-29T08:59:07.991Z,98764.41
2022-11-29T09:01:35.370Z,98764.81
2022-11-29T09:04:03.124Z,98765.91
2022-11-29T09:06:40.940Z,98759.66
2022-11-29T09:09:08.480Z,98771.56
2022-11-29T09:11:36.878Z,98769.13
2022-11-29T09:14:08.073Z,98780.09
2022-11-29T09:16:38.478Z,98776.16
2022-11-29T09:19:07.353Z,98778.63
2022-11-29T09:21:38.648Z,98770.00
2022-11-29T09:24:06.926Z,98772.44
2022-11-29T09:26:37.996Z,98774.22
2022-11-29T09:29:07.388Z,98779.22
2022-11-29T09:31:35.891Z,98776.78
2022-11-29T09:34:03.695Z,98782.13
2022-11-29T09:36:39.794Z,98788.25
2022-11-29T09:39:07.101Z,98786.63
2022-11-29T09:42:07.624Z,98786.88
2022-11-29T09:45:07.312Z,98796.59
2022-11-29T09:48:22.011Z,98795.78
2022-11-29T09:51:30.047Z,98790.09
2022-11-29T09:54:24.936Z,98792.19
2022-11-29T09:56:55.752Z,98796.41
2022-11-29T09:59:41.062Z,98809.69
2022-11-29T10:02:36.860Z,98799.34
2022-11-29T10:05:26.274Z,98808.38
2022-11-29T10:08:14.796Z,98802.66
2022-11-29T10:10:54.873Z,98800.50
2022-11-29T10:13:49.237Z,98804.50
2022-11-29T10:16:32.500Z,98814.91
2022-11-29T10:19:33.414Z,98809.13
2022-11-29T10:22:31.390Z,98813.41
2022-11-29T10:25:02.792Z,98812.53
2022-11-29T10:27:57.287Z,98806.94
2022-11-29T10:30:22.115Z,98803.00
2022-11-29T10:33:00.698Z,98809.19
2022-11-29T10:35:29.649Z,98815.31
2022-11-29T10:41:09.441Z,98805.56
2022-11-29T10:43:38.287Z,98804.75
2022-11-29T10:46:17.252Z,98811.44
2022-11-29T10:48:44.868Z,98802.94
2022-11-29T10:51:17.927Z,98805.38
2022-11-29T10:53:46.781Z,98800.75
2022-11-29T10:56:29.332Z,98799.19
2022-11-29T10:59:08.978Z,98796.09
2022-11-29T11:01:42.411Z,98805.13
2022-11-29T11:04:44.884Z,98797.84
2022-11-29T11:07:40.937Z,98804.53
2022-11-29T11:10:28.264Z,98804.06
2022-11-29T11:13:20.315Z,98806.31
2022-11-29T11:15:47.856Z,98802.22
2022-11-29T11:18:26.566Z,98807.97
2022-11-29T11:20:59.075Z,98812.91
2022-11-29T11:23:42.382Z,98803.22
2022-11-29T11:26:14.954Z,98800.81
2022-11-29T11:29:00.676Z,98803.09
2022-11-29T11:31:38.322Z,98809.38
2022-11-29T11:34:24.369Z,98806.56
2022-11-29T11:36:53.541Z,98803.75
2022-11-29T11:39:24.137Z,98812.16
2022-11-29T11:42:11.476Z,98806.34
2022-11-29T11:44:50.139Z,98808.00
2022-11-29T11:47:27.354Z,98811.72
2022-11-29T11:50:04.782Z,98817.19
2022-11-29T11:52:53.254Z,98816.47
2022-11-29T11:55:40.913Z,98820.13
2022-11-29T11:58:23.410Z,98822.56
2022-11-29T12:01:04.499Z,98822.38
2022-11-29T12:04:06.672Z,98814.34
2022-11-29T12:07:38.739Z,98829.00
2022-11-29T12:10:23.090Z,98829.59
2022-11-29T12:12:53.567Z,98831.81
2022-11-29T12:15:29.720Z,98828.25
2022-11-29T12:18:16.538Z,98832.97
2022-11-29T12:21:08.743Z,98833.19
2022-11-29T12:24:02.695Z,98832.69
2022-11-29T12:29:34.265Z,98837.56
2022-11-29T12:32:52.300Z,98834.78
2022-11-29T12:36:15.540Z,98845.44
2022-11-29T12:39:39.255Z,98844.50
2022-11-29T12:42:40.845Z,98842.50
2022-11-29T12:45:52.389Z,98842.56
2022-11-29T12:48:26.840Z,98849.91
2022-11-29T12:51:09.938Z,98842.13
2022-11-29T12:53:59.323Z,98849.56
2022-11-29T12:56:48.181Z,98852.69
2022-11-29T13:00:07.014Z,98846.50
2022-11-29T13:02:59.131Z,98855.84
2022-11-29T13:06:14.358Z,98849.69
2022-11-29T13:09:23.795Z,98857.66
2022-11-29T13:12:29.445Z,98852.53
2022-11-29T13:15:18.044Z,98857.25
2022-11-29T13:18:02.578Z,98864.03
2022-11-29T13:20:59.641Z,98859.63
2022-11-29T13:24:10.194Z,98859.13
2022-11-29T13:26:43.440Z,98861.34
2022-11-29T13:29:18.796Z,98862.72
2022-11-29T13:31:47.805Z,98867.78
2022-11-29T13:34:21.213Z,98852.84
2022-11-29T13:37:10.803Z,98866.81
2022-11-29T13:40:26.054Z,98871.16
2022-11-29T13:43:44.057Z,98873.72
2022-11-29T13:46:59.678Z,98868.91
2022-11-29T13:50:44.040Z,98868.06
2022-11-29T13:53:23.694Z,98867.56
2022-11-29T13:56:01.413Z,98868.19
2022-11-29T13:58:28.658Z,98873.16
2022-11-29T14:01:13.228Z,98873.63
2022-11-29T14:04:00.901Z,98880.84
2022-11-29T14:06:40.679Z,98881.88
2022-11-29T14:09:43.756Z,98887.03
2022-11-29T14:12:39.532Z,98885.72
2022-11-29T14:15:23.096Z,98885.06
2022-11-29T14:17:59.216Z,98878.78
2022-11-29T14:20:28.038Z,98883.94
2022-11-29T14:23:06.574Z,98884.66
2022-11-29T14:25:55.822Z,98891.22
2022-11-29T14:28:48.342Z,98891.31
2022-11-29T14:31:54.036Z,98894.84
2022-11-29T14:34:33.440Z,98894.50
2022-11-29T14:37:19.995Z,98895.00
2022-11-29T14:39:54.648Z,98894.84
2022-11-29T14:42:26.434Z,98897.69
2022-11-29T14:45:04.854Z,98904.13
2022-11-29T14:47:38.961Z,98897.69
2022-11-29T14:50:10.488Z,98895.34
2022-11-29T14:52:51.631Z,98893.38
2022-11-29T14:55:24.594Z,98907.03
2022-11-29T14:58:06.014Z,98906.94
2022-11-29T15:00:56.141Z,98904.41
2022-11-29T15:03:43.431Z,98905.94
2022-11-29T15:06:30.214Z,98916.47
2022-11-29T15:09:12.852Z,98911.31
2022-11-29T15:11:59.643Z,98919.28
2022-11-29T15:14:55.898Z,98921.78
2022-11-29T15:17:47.972Z,98923.13
2022-11-29T15:21:02.563Z,98929.56
2022-11-29T15:23:44.116Z,98931.41
2022-11-29T15:26:21.577Z,98925.75
2022-11-29T15:28:52.527Z,98931.72
2022-11-29T15:31:22.296Z,98930.59
2022-11-29T15:33:51.589Z,98921.47
2022-11-29T15:36:24.358Z,98941.09
2022-11-29T15:39:04.349Z,98939.78
2022-11-29T15:41:35.762Z,98938.25
2022-11-29T15:44:21.361Z,98947.56
2022-11-29T15:46:50.963Z,98949.75
2022-11-29T15:49:38.282Z,98941.03
2022-11-29T15:52:20.670Z,98950.16
2022-11-29T15:55:02.140Z,98952.75
2022-11-29T15:57:41.179Z,98952.25
2022-11-29T16:00:20.285Z,98955.91
2022-11-29T16:03:06.645Z,98958.00
2022-11-29T16:05:39.180Z,98960.34
2022-11-29T16:08:19.491Z,98965.50
2022-11-29T16:10:53.015Z,98975.00
2022-11-29T16:13:31.194Z,98968.59
2022-11-29T16:16:10.243Z,98972.00
2022-11-29T16:18:41.650Z,98967.72
2022-11-29T16:21:32.680Z,98969.84
2022-11-29T16:24:21.729Z,98966.13
2022-11-29T16:26:51.090Z,98977.09
2022-11-29T16:29:36.513Z,98966.06
2022-11-29T16:32:41.370Z,98986.88
2022-11-29T16:35:22.446Z,98982.38
2022-11-29T16:37:50.955Z,98987.16
2022-11-29T16:40:30.398Z,98986.56
2022-11-29T16:43:19.666Z,98983.69
2022-11-29T16:45:47.363Z,98990.56
2022-11-29T16:48:24.600Z,98992.63
2022-11-29T16:51:10.429Z,98995.47
2022-11-29T16:53:48.473Z,98983.56
2022-11-29T16:56:19.731Z,98990.78
2022-11-29T16:59:24.862Z,98988.84
2022-11-29T17:01:48.429Z,98997.31
2022-11-29T17:04:24.473Z,98991.19
2022-11-29T17:06:59.571Z,98987.56
2022-11-29T17:09:36.222Z,98989.56
2022-11-29T17:12:04.008Z,98996.47
2022-11-29T17:14:32.844Z,98987.44
2022-11-29T17:17:07.319Z,98991.66
2022-11-29T17:19:34.864Z,98995.53
2022-11-29T17:22:02.300Z,98988.78
2022-11-29T17:24:29.651Z,98994.44
2022-11-29T17:27:01.258Z,98995.16
2022-11-29T17:29:33.186Z,98996.97
2022-11-29T17:32:00.528Z,99002.13
2022-11-29T17:34:27.707Z,98998.03
2022-11-29T17:36:54.971Z,99000.19
2022-11-29T17:39:24.517Z,99002.47
2022-11-29T17:41:54.239Z,99008.50
2022-11-29T17:44:21.624Z,99006.22
2022-11-29T17:46:48.779Z,99009.97
2022-11-29T17:49:18.716Z,99005.19
2022-11-29T17:51:53.787Z,99008.47
2022-11-29T17:54:23.267Z,99010.09
2022-11-29T17:56:51.852Z,99008.91
2022-11-29T17:59:19.443Z,99016.13
2022-11-29T18:01:47.482Z,99014.97
2022-11-29T18:04:30.889Z,99021.13
2022-11-29T18:07:18.929Z,99019.88
2022-11-29T18:09:53.630Z,99025.88
2022-11-29T18:12:46.242Z,99027.75
2022-11-29T18:15:13.569Z,99027.28
2022-11-29T18:17:43.708Z,99027.41
2022-11-29T18:20:13.984Z,99029.81
2022-11-29T18:22:41.439Z,99028.72
2022-11-29T18:25:37.624Z,99039.44
2022-11-29T18:28:02.298Z,99032.69
2022-11-29T18:31:11.049Z,99032.56
2022-11-29T18:33:40.818Z,99042.00
2022-11-29T18:36:36.935Z,99046.19
2022-11-29T18:39:17.584Z,99045.50
2022-11-29T18:41:52.591Z,99059.13
2022-11-29T18:44:29.172Z,99054.66
2022-11-29T18:46:58.770Z,99057.31
2022-11-29T18:49:27.269Z,99056.09
2022-11-29T18:51:58.261Z,99057.09
2022-11-29T18:54:25.695Z,99057.91
2022-11-29T18:56:55.257Z,99063.34
2022-11-29T18:59:47.458Z,99051.06
2022-11-29T19:02:19.975Z,99058.75
2022-11-29T19:04:50.131Z,99054.78
2022-11-29T19:07:18.650Z,99057.53
2022-11-29T19:09:46.272Z,99053.56
2022-11-29T19:12:38.362Z,99056.34
2022-11-29T19:15:10.323Z,99053.94
2022-11-29T19:17:42.945Z,99043.56
2022-11-29T19:20:12.343Z,99043.94
2022-11-29T19:22:42.174Z,99049.09
2022-11-29T19:25:11.371Z,99053.72
2022-11-29T19:27:45.227Z,99043.56
2022-11-29T19:30:16.246Z,99053.97
2022-11-29T19:32:43.971Z,99055.75
2022-11-29T19:35:11.312Z,99053.59
2022-11-29T19:37:38.654Z,99046.34
2022-11-29T19:40:09.270Z,99059.59
2022-11-29T19:42:51.909Z,99053.47
2022-11-29T19:45:21.926Z,99057.56
2022-11-29T19:47:51.199Z,99056.84
2022-11-29T19:50:43.352Z,99063.34
2022-11-29T19:53:13.608Z,99067.72
2022-11-29T19:55:58.836Z,99077.69
2022-11-29T19:59:04.561Z,99082.41
2022-11-29T20:01:42.062Z,99072.28
2022-11-29T20:04:14.041Z,99074.34
2022-11-29T20:06:57.927Z,99082.09
2022-11-29T20:09:28.605Z,99069.63
2022-11-29T20:11:55.864Z,99067.34
2022-11-29T20:14:23.204Z,99076.63
2022-11-29T20:16:50.498Z,99074.59
2022-11-29T20:19:18.148Z,99076.00
2022-11-29T20:21:49.378Z,99081.72
2022-11-29T20:24:19.512Z,99079.59
2022-11-29T20:26:50.655Z,99079.88
2022-11-29T20:29:27.038Z,99071.81
2022-11-29T20:31:54.409Z,99074.97
2022-11-29T20:34:24.891Z,99070.84
2022-11-29T20:37:58.721Z,99073.94
2022-11-29T20:41:19.405Z,99079.28
2022-11-29T20:44:01.955Z,99075.03
2022-11-29T20:46:30.124Z,99087.97
2022-11-29T20:49:03.151Z,99082.66
2022-11-29T20:51:53.273Z,99086.53
2022-11-29T20:54:20.710Z,99090.50
2022-11-29T20:56:47.985Z,99089.06
2022-11-29T20:59:17.938Z,99095.97
2022-11-29T21:01:45.452Z,99097.03
2022-11-29T21:04:23.208Z,99103.66
2022-11-29T21:06:58.410Z,99101.16
2022-11-29T21:09:25.701Z,99099.06
2022-11-29T21:11:57.185Z,99097.41
2022-11-29T21:14:26.177Z,99101.19
2022-11-29T21:16:54.675Z,99094.88
2022-11-29T21:19:26.032Z,99092.53
2022-11-29T21:22:08.562Z,99092.97
2022-11-29T21:25:19.644Z,99089.44
2022-11-29T21:27:51.812Z,99097.34
2022-11-29T21:30:24.979Z,99092.28
2022-11-29T21:32:56.491Z,99087.53
2022-11-29T21:35:25.334Z,99089.50
2022-11-29T21:38:00.516Z,99090.81
2022-11-29T21:40:28.463Z,99093.78
2022-11-29T21:42:58.220Z,99088.38
2022-11-29T21:45:25.610Z,99087.28
2022-11-29T21:47:55.361Z,99091.16
2022-11-29T21:50:22.768Z,99090.47
2022-11-29T21:52:52.563Z,99100.53
2022-11-29T21:55:21.976Z,99089.38
2022-11-29T21:57:49.330Z,99105.69
2022-11-29T22:00:17.946Z,99100.88
2022-11-29T22:02:45.720Z,99104.34
2022-11-29T22:05:13.144Z,99108.03
2022-11-29T22:07:40.524Z,99109.22
2022-11-29T22:10:13.317Z,99109.84
2022-11-29T22:12:51.801Z,99115.97
2022-11-29T22:15:24.640Z,99118.19
2022-11-29T22:17:55.881Z,99114.78
2022-11-29T22:20:23.180Z,99122.41
2022-11-29T22:22:53.504Z,99111.75
2022-11-29T22:25:24.452Z,99117.97
2022-11-29T22:27:51.762Z,99118.72
2022-11-29T22:30:27.905Z,99115.09
2022-11-29T22:32:57.128Z,99115.28
2022-11-29T22:35:24.465Z,99115.59
2022-11-29T22:37:51.759Z,99109.53
2022-11-29T22:40:19.261Z,99113.44
2022-11-29T22:42:52.614Z,99106.69
2022-11-29T22:45:20.415Z,99103.41
2022-11-29T22:47:48.074Z,99109.91
2022-11-29T22:50:15.394Z,99113.69
2022-11-29T22:52:42.822Z,99102.88
2022-11-29T22:55:10.371Z,99105.28
2022-11-29T22:57:37.562Z,99113.16
2022-11-29T23:00:06.433Z,99108.06
2022-11-29T23:02:33.851Z,99107.38
2022-11-29T23:05:02.301Z,99108.94
2022-11-29T23:07:29.753Z,99117.84
2022-11-29T23:10:04.144Z,99106.97
2022-11-29T23:12:31.513Z,99102.75
2022-11-29T23:14:58.971Z,99106.75
2022-11-29T23:17:27.374Z,99112.19
2022-11-29T23:19:54.623Z,99110.16
2022-11-29T23:22:22.430Z,99109.91
2022-11-29T23:24:49.715Z,99113.88
2022-11-29T23:27:17.183Z,99113.16
2022-11-29T23:29:44.729Z,99113.06
2022-11-29T23:32:12.043Z,99120.31
2022-11-29T23:34:39.247Z,99121.25
2022-11-29T23:37:06.534Z,99118.72
2022-11-29T23:39:33.928Z,99109.66
2022-11-29T23:42:01.057Z,99112.06
2022-11-29T23:44:28.388Z,99104.97
2022-11-29T23:46:55.713Z,99107.97
2022-11-29T23:49:23.021Z,99109.28
2022-11-29T23:51:50.605Z,99107.81
2022-11-29T23:54:17.757Z,99110.16
2022-11-29T23:56:45.086Z,99109.41
2022-11-29T23:59:12.465Z,99104.34
